sensor_id;sensor_type;location;lat;lon;timestamp;temperature;humidity
48488;DHT22;34289;48.572;13.378;2023-04-25T00:02:01;6.30;99.90
48488;DHT22;34289;48.572;13.378;2023-04-25T00:04:27;5.60;99.90
48488;DHT22;34289;48.572;13.378;2023-04-25T00:06:53;5.60;99.90
48488;DHT22;34289;48.572;13.378;2023-04-25T00:09:19;5.70;99.90
48488;DHT22;34289;48.572;13.378;2023-04-25T00:11:45;5.80;99.90
48488;DHT22;34289;48.572;13.378;2023-04-25T00:14:10;6.00;99.90
48488;DHT22;34289;48.572;13.378;2023-04-25T00:16:36;6.20;99.90
48488;DHT22;34289;48.572;13.378;2023-04-25T00:19:02;6.50;99.90
48488;DHT22;34289;48.572;13.378;2023-04-25T00:21:28;6.00;99.90
48488;DHT22;34289;48.572;13.378;2023-04-25T00:23:54;6.00;99.90
48488;DHT22;34289;48.572;13.378;2023-04-25T00:26:20;6.00;99.90
48488;DHT22;34289;48.572;13.378;2023-04-25T00:28:48;6.10;99.90
48488;DHT22;34289;48.572;13.378;2023-04-25T00:31:14;6.00;99.90
48488;DHT22;34289;48.572;13.378;2023-04-25T00:33:40;6.00;99.90
48488;DHT22;34289;48.572;13.378;2023-04-25T00:36:06;6.00;99.90
48488;DHT22;34289;48.572;13.378;2023-04-25T00:38:32;6.00;99.90
48488;DHT22;34289;48.572;13.378;2023-04-25T00:40:57;6.10;99.90
48488;DHT22;34289;48.572;13.378;2023-04-25T00:43:26;6.10;99.90
48488;DHT22;34289;48.572;13.378;2023-04-25T00:45:52;6.20;99.90
48488;DHT22;34289;48.572;13.378;2023-04-25T00:48:20;6.10;99.90
48488;DHT22;34289;48.572;13.378;2023-04-25T00:50:55;6.10;99.90
48488;DHT22;34289;48.572;13.378;2023-04-25T00:53:22;6.20;99.90
48488;DHT22;34289;48.572;13.378;2023-04-25T00:55:49;6.20;99.90
48488;DHT22;34289;48.572;13.378;2023-04-25T00:58:17;6.80;99.90
48488;DHT22;34289;48.572;13.378;2023-04-25T01:00:45;5.90;99.90
48488;DHT22;34289;48.572;13.378;2023-04-25T01:03:12;5.90;99.90
48488;DHT22;34289;48.572;13.378;2023-04-25T01:05:40;5.80;99.90
48488;DHT22;34289;48.572;13.378;2023-04-25T01:08:07;5.80;99.90
48488;DHT22;34289;48.572;13.378;2023-04-25T01:10:32;5.90;99.90
48488;DHT22;34289;48.572;13.378;2023-04-25T01:12:58;6.20;99.90
48488;DHT22;34289;48.572;13.378;2023-04-25T01:15:24;6.90;99.90
48488;DHT22;34289;48.572;13.378;2023-04-25T01:17:49;6.50;99.90
48488;DHT22;34289;48.572;13.378;2023-04-25T01:20:15;6.00;99.90
48488;DHT22;34289;48.572;13.378;2023-04-25T01:22:42;6.40;99.90
48488;DHT22;34289;48.572;13.378;2023-04-25T01:25:08;5.70;99.90
48488;DHT22;34289;48.572;13.378;2023-04-25T01:27:36;5.90;99.90
48488;DHT22;34289;48.572;13.378;2023-04-25T01:30:03;6.10;99.90
48488;DHT22;34289;48.572;13.378;2023-04-25T01:32:30;5.90;99.90
48488;DHT22;34289;48.572;13.378;2023-04-25T01:35:07;6.00;99.90
48488;DHT22;34289;48.572;13.378;2023-04-25T01:37:44;6.10;99.90
48488;DHT22;34289;48.572;13.378;2023-04-25T01:40:11;6.00;99.90
48488;DHT22;34289;48.572;13.378;2023-04-25T01:42:38;5.90;99.90
48488;DHT22;34289;48.572;13.378;2023-04-25T01:45:05;6.00;99.90
48488;DHT22;34289;48.572;13.378;2023-04-25T01:47:32;5.90;99.90
48488;DHT22;34289;48.572;13.378;2023-04-25T01:49:57;5.90;99.90
48488;DHT22;34289;48.572;13.378;2023-04-25T01:52:23;6.60;99.90
48488;DHT22;34289;48.572;13.378;2023-04-25T01:54:50;6.00;99.90
48488;DHT22;34289;48.572;13.378;2023-04-25T01:57:16;6.00;99.90
48488;DHT22;34289;48.572;13.378;2023-04-25T01:59:42;6.00;99.90
48488;DHT22;34289;48.572;13.378;2023-04-25T02:02:08;6.50;99.90
48488;DHT22;34289;48.572;13.378;2023-04-25T02:04:33;6.10;99.90
48488;DHT22;34289;48.572;13.378;2023-04-25T02:06:59;6.20;99.90
48488;DHT22;34289;48.572;13.378;2023-04-25T02:09:25;6.10;99.90
48488;DHT22;34289;48.572;13.378;2023-04-25T02:11:50;6.60;99.90
48488;DHT22;34289;48.572;13.378;2023-04-25T02:14:16;5.90;99.90
48488;DHT22;34289;48.572;13.378;2023-04-25T02:16:42;5.80;99.90
48488;DHT22;34289;48.572;13.378;2023-04-25T02:19:09;5.80;99.90
48488;DHT22;34289;48.572;13.378;2023-04-25T02:21:35;5.70;99.90
48488;DHT22;34289;48.572;13.378;2023-04-25T02:24:01;5.80;99.90
48488;DHT22;34289;48.572;13.378;2023-04-25T02:26:27;5.80;99.90
48488;DHT22;34289;48.572;13.378;2023-04-25T02:28:52;5.70;99.90
48488;DHT22;34289;48.572;13.378;2023-04-25T02:31:18;5.70;99.90
48488;DHT22;34289;48.572;13.378;2023-04-25T02:33:44;5.50;99.90
48488;DHT22;34289;48.572;13.378;2023-04-25T02:36:09;6.10;99.90
48488;DHT22;34289;48.572;13.378;2023-04-25T02:38:35;5.50;99.90
48488;DHT22;34289;48.572;13.378;2023-04-25T02:41:01;5.60;99.90
48488;DHT22;34289;48.572;13.378;2023-04-25T02:43:26;5.50;99.90
48488;DHT22;34289;48.572;13.378;2023-04-25T02:45:52;5.50;99.90
48488;DHT22;34289;48.572;13.378;2023-04-25T02:48:17;5.60;99.90
48488;DHT22;34289;48.572;13.378;2023-04-25T02:50:43;5.70;99.90
48488;DHT22;34289;48.572;13.378;2023-04-25T02:53:10;5.70;99.90
48488;DHT22;34289;48.572;13.378;2023-04-25T02:55:36;5.60;99.90
48488;DHT22;34289;48.572;13.378;2023-04-25T02:58:01;5.60;99.90
48488;DHT22;34289;48.572;13.378;2023-04-25T03:00:27;5.70;99.90
48488;DHT22;34289;48.572;13.378;2023-04-25T03:02:53;5.90;99.90
48488;DHT22;34289;48.572;13.378;2023-04-25T03:05:18;5.90;99.90
48488;DHT22;34289;48.572;13.378;2023-04-25T03:07:44;6.00;99.90
48488;DHT22;34289;48.572;13.378;2023-04-25T03:10:11;6.00;99.90
48488;DHT22;34289;48.572;13.378;2023-04-25T03:12:37;6.10;99.90
48488;DHT22;34289;48.572;13.378;2023-04-25T03:15:03;6.10;99.90
48488;DHT22;34289;48.572;13.378;2023-04-25T03:17:29;6.00;99.90
48488;DHT22;34289;48.572;13.378;2023-04-25T03:19:55;6.00;99.90
48488;DHT22;34289;48.572;13.378;2023-04-25T03:22:21;6.10;99.90
48488;DHT22;34289;48.572;13.378;2023-04-25T03:24:46;6.00;99.90
48488;DHT22;34289;48.572;13.378;2023-04-25T03:27:12;6.10;99.90
48488;DHT22;34289;48.572;13.378;2023-04-25T03:29:38;6.20;99.90
48488;DHT22;34289;48.572;13.378;2023-04-25T03:32:04;6.00;99.90
48488;DHT22;34289;48.572;13.378;2023-04-25T03:34:29;6.00;99.90
48488;DHT22;34289;48.572;13.378;2023-04-25T03:36:55;6.10;99.90
48488;DHT22;34289;48.572;13.378;2023-04-25T03:39:21;6.20;99.90
48488;DHT22;34289;48.572;13.378;2023-04-25T03:41:47;6.20;99.90
48488;DHT22;34289;48.572;13.378;2023-04-25T03:44:13;6.20;99.90
48488;DHT22;34289;48.572;13.378;2023-04-25T03:46:39;6.10;99.90
48488;DHT22;34289;48.572;13.378;2023-04-25T03:49:04;6.10;99.90
48488;DHT22;34289;48.572;13.378;2023-04-25T03:51:30;6.20;99.90
48488;DHT22;34289;48.572;13.378;2023-04-25T03:53:56;6.10;99.90
48488;DHT22;34289;48.572;13.378;2023-04-25T03:56:21;6.80;99.90
48488;DHT22;34289;48.572;13.378;2023-04-25T03:58:47;6.00;99.90
48488;DHT22;34289;48.572;13.378;2023-04-25T04:01:13;6.00;99.90
48488;DHT22;34289;48.572;13.378;2023-04-25T04:03:38;6.00;99.90
48488;DHT22;34289;48.572;13.378;2023-04-25T04:06:05;6.00;99.90
48488;DHT22;34289;48.572;13.378;2023-04-25T04:08:31;6.10;99.90
48488;DHT22;34289;48.572;13.378;2023-04-25T04:10:58;6.10;99.90
48488;DHT22;34289;48.572;13.378;2023-04-25T04:13:26;6.10;99.90
48488;DHT22;34289;48.572;13.378;2023-04-25T04:15:52;6.00;99.90
48488;DHT22;34289;48.572;13.378;2023-04-25T04:18:17;6.00;99.90
48488;DHT22;34289;48.572;13.378;2023-04-25T04:20:43;6.10;99.90
48488;DHT22;34289;48.572;13.378;2023-04-25T04:23:09;6.50;99.90
48488;DHT22;34289;48.572;13.378;2023-04-25T04:25:34;6.20;99.90
48488;DHT22;34289;48.572;13.378;2023-04-25T04:28:00;6.20;99.90
48488;DHT22;34289;48.572;13.378;2023-04-25T04:30:27;6.70;99.90
48488;DHT22;34289;48.572;13.378;2023-04-25T04:32:57;6.40;99.90
48488;DHT22;34289;48.572;13.378;2023-04-25T04:35:23;6.60;99.90
48488;DHT22;34289;48.572;13.378;2023-04-25T04:37:49;6.70;99.90
48488;DHT22;34289;48.572;13.378;2023-04-25T04:40:15;6.70;99.90
48488;DHT22;34289;48.572;13.378;2023-04-25T04:42:42;6.90;99.90
48488;DHT22;34289;48.572;13.378;2023-04-25T04:45:09;7.10;99.90
48488;DHT22;34289;48.572;13.378;2023-04-25T04:47:35;6.30;99.90
48488;DHT22;34289;48.572;13.378;2023-04-25T04:50:03;6.30;99.90
48488;DHT22;34289;48.572;13.378;2023-04-25T04:52:29;6.40;99.90
48488;DHT22;34289;48.572;13.378;2023-04-25T04:54:55;6.50;99.90
48488;DHT22;34289;48.572;13.378;2023-04-25T04:57:21;6.60;99.90
48488;DHT22;34289;48.572;13.378;2023-04-25T04:59:47;6.90;99.90
48488;DHT22;34289;48.572;13.378;2023-04-25T05:02:13;6.70;99.90
48488;DHT22;34289;48.572;13.378;2023-04-25T05:04:38;6.90;99.90
48488;DHT22;34289;48.572;13.378;2023-04-25T05:07:04;6.70;99.90
48488;DHT22;34289;48.572;13.378;2023-04-25T05:09:30;6.70;99.90
48488;DHT22;34289;48.572;13.378;2023-04-25T05:11:55;6.70;99.90
48488;DHT22;34289;48.572;13.378;2023-04-25T05:14:21;6.70;99.90
48488;DHT22;34289;48.572;13.378;2023-04-25T05:16:48;7.10;99.90
48488;DHT22;34289;48.572;13.378;2023-04-25T05:19:13;6.80;99.90
48488;DHT22;34289;48.572;13.378;2023-04-25T05:21:39;7.20;99.90
48488;DHT22;34289;48.572;13.378;2023-04-25T05:24:05;7.00;99.90
48488;DHT22;34289;48.572;13.378;2023-04-25T05:26:31;7.20;99.90
48488;DHT22;34289;48.572;13.378;2023-04-25T05:28:59;7.50;99.90
48488;DHT22;34289;48.572;13.378;2023-04-25T05:31:25;7.70;99.90
48488;DHT22;34289;48.572;13.378;2023-04-25T05:33:51;7.90;99.90
48488;DHT22;34289;48.572;13.378;2023-04-25T05:36:18;8.10;99.90
48488;DHT22;34289;48.572;13.378;2023-04-25T05:38:43;8.40;99.90
48488;DHT22;34289;48.572;13.378;2023-04-25T05:41:09;8.90;99.90
48488;DHT22;34289;48.572;13.378;2023-04-25T05:43:35;10.30;99.90
48488;DHT22;34289;48.572;13.378;2023-04-25T05:46:00;13.30;99.90
48488;DHT22;34289;48.572;13.378;2023-04-25T05:48:26;16.00;99.90
48488;DHT22;34289;48.572;13.378;2023-04-25T05:50:52;16.90;99.90
48488;DHT22;34289;48.572;13.378;2023-04-25T05:53:19;17.30;99.90
48488;DHT22;34289;48.572;13.378;2023-04-25T05:55:44;17.10;99.90
48488;DHT22;34289;48.572;13.378;2023-04-25T05:58:10;15.90;99.90
48488;DHT22;34289;48.572;13.378;2023-04-25T06:00:35;15.70;99.90
48488;DHT22;34289;48.572;13.378;2023-04-25T06:03:01;15.10;99.90
48488;DHT22;34289;48.572;13.378;2023-04-25T06:05:27;13.70;99.90
48488;DHT22;34289;48.572;13.378;2023-04-25T06:07:53;14.20;99.90
48488;DHT22;34289;48.572;13.378;2023-04-25T06:10:18;15.80;99.90
48488;DHT22;34289;48.572;13.378;2023-04-25T06:12:44;17.10;99.90
48488;DHT22;34289;48.572;13.378;2023-04-25T06:15:10;16.60;99.90
48488;DHT22;34289;48.572;13.378;2023-04-25T06:17:36;15.70;99.90
48488;DHT22;34289;48.572;13.378;2023-04-25T06:20:02;14.50;99.90
48488;DHT22;34289;48.572;13.378;2023-04-25T06:22:28;13.50;99.90
48488;DHT22;34289;48.572;13.378;2023-04-25T06:24:54;12.70;99.90
48488;DHT22;34289;48.572;13.378;2023-04-25T06:27:22;12.00;99.90
48488;DHT22;34289;48.572;13.378;2023-04-25T06:29:48;11.60;99.90
48488;DHT22;34289;48.572;13.378;2023-04-25T06:32:13;11.20;99.90
48488;DHT22;34289;48.572;13.378;2023-04-25T06:34:39;11.10;99.90
48488;DHT22;34289;48.572;13.378;2023-04-25T06:37:05;10.80;99.90
48488;DHT22;34289;48.572;13.378;2023-04-25T06:39:30;9.80;99.90
48488;DHT22;34289;48.572;13.378;2023-04-25T06:41:56;10.50;99.90
48488;DHT22;34289;48.572;13.378;2023-04-25T06:44:22;10.60;99.90
48488;DHT22;34289;48.572;13.378;2023-04-25T06:46:49;10.20;99.90
48488;DHT22;34289;48.572;13.378;2023-04-25T06:49:15;10.10;99.90
48488;DHT22;34289;48.572;13.378;2023-04-25T06:51:41;10.00;99.90
48488;DHT22;34289;48.572;13.378;2023-04-25T06:54:06;10.00;99.90
48488;DHT22;34289;48.572;13.378;2023-04-25T06:56:32;10.10;99.90
48488;DHT22;34289;48.572;13.378;2023-04-25T06:58:58;10.00;99.90
48488;DHT22;34289;48.572;13.378;2023-04-25T07:01:23;9.90;99.90
48488;DHT22;34289;48.572;13.378;2023-04-25T07:03:49;10.00;99.90
48488;DHT22;34289;48.572;13.378;2023-04-25T07:06:15;10.20;99.90
48488;DHT22;34289;48.572;13.378;2023-04-25T07:08:40;10.20;99.90
48488;DHT22;34289;48.572;13.378;2023-04-25T07:11:06;9.90;99.90
48488;DHT22;34289;48.572;13.378;2023-04-25T07:13:32;9.90;99.90
48488;DHT22;34289;48.572;13.378;2023-04-25T07:15:57;9.90;99.90
48488;DHT22;34289;48.572;13.378;2023-04-25T07:18:23;10.00;99.90
48488;DHT22;34289;48.572;13.378;2023-04-25T07:20:49;10.10;99.90
48488;DHT22;34289;48.572;13.378;2023-04-25T07:23:14;10.10;99.90
48488;DHT22;34289;48.572;13.378;2023-04-25T07:25:40;10.10;99.90
48488;DHT22;34289;48.572;13.378;2023-04-25T07:28:06;10.00;99.90
48488;DHT22;34289;48.572;13.378;2023-04-25T07:30:31;10.00;99.90
48488;DHT22;34289;48.572;13.378;2023-04-25T07:32:57;10.70;99.90
48488;DHT22;34289;48.572;13.378;2023-04-25T07:35:23;10.20;99.90
48488;DHT22;34289;48.572;13.378;2023-04-25T07:37:48;10.50;99.90
48488;DHT22;34289;48.572;13.378;2023-04-25T07:40:14;10.10;99.90
48488;DHT22;34289;48.572;13.378;2023-04-25T07:42:42;10.20;99.90
48488;DHT22;34289;48.572;13.378;2023-04-25T07:45:08;10.30;99.90
48488;DHT22;34289;48.572;13.378;2023-04-25T07:47:35;10.30;99.90
48488;DHT22;34289;48.572;13.378;2023-04-25T07:50:01;10.70;99.90
48488;DHT22;34289;48.572;13.378;2023-04-25T07:52:26;10.40;99.90
48488;DHT22;34289;48.572;13.378;2023-04-25T07:54:52;10.50;99.90
48488;DHT22;34289;48.572;13.378;2023-04-25T07:57:19;10.70;99.90
48488;DHT22;34289;48.572;13.378;2023-04-25T07:59:45;10.80;99.90
48488;DHT22;34289;48.572;13.378;2023-04-25T08:02:11;10.90;99.90
48488;DHT22;34289;48.572;13.378;2023-04-25T08:04:36;11.10;99.90
48488;DHT22;34289;48.572;13.378;2023-04-25T08:07:02;11.40;99.90
48488;DHT22;34289;48.572;13.378;2023-04-25T08:09:28;11.20;99.90
48488;DHT22;34289;48.572;13.378;2023-04-25T08:11:54;11.40;99.90
48488;DHT22;34289;48.572;13.378;2023-04-25T08:14:20;11.40;99.90
48488;DHT22;34289;48.572;13.378;2023-04-25T08:16:45;11.50;99.90
48488;DHT22;34289;48.572;13.378;2023-04-25T08:19:11;11.90;99.90
48488;DHT22;34289;48.572;13.378;2023-04-25T08:21:37;12.10;99.90
48488;DHT22;34289;48.572;13.378;2023-04-25T08:24:03;12.70;99.90
48488;DHT22;34289;48.572;13.378;2023-04-25T08:26:29;13.20;99.90
48488;DHT22;34289;48.572;13.378;2023-04-25T08:28:55;13.50;99.90
48488;DHT22;34289;48.572;13.378;2023-04-25T08:31:20;14.00;99.90
48488;DHT22;34289;48.572;13.378;2023-04-25T08:33:46;14.20;99.90
48488;DHT22;34289;48.572;13.378;2023-04-25T08:36:12;14.50;99.90
48488;DHT22;34289;48.572;13.378;2023-04-25T08:38:37;15.00;99.90
48488;DHT22;34289;48.572;13.378;2023-04-25T08:41:05;15.00;99.90
48488;DHT22;34289;48.572;13.378;2023-04-25T08:43:32;14.70;99.90
48488;DHT22;34289;48.572;13.378;2023-04-25T08:46:01;14.70;99.90
48488;DHT22;34289;48.572;13.378;2023-04-25T08:48:27;14.50;99.90
48488;DHT22;34289;48.572;13.378;2023-04-25T08:50:56;14.80;99.90
48488;DHT22;34289;48.572;13.378;2023-04-25T08:53:26;15.00;99.90
48488;DHT22;34289;48.572;13.378;2023-04-25T08:55:57;15.10;99.90
48488;DHT22;34289;48.572;13.378;2023-04-25T08:58:23;15.10;99.90
48488;DHT22;34289;48.572;13.378;2023-04-25T09:00:49;14.70;99.90
48488;DHT22;34289;48.572;13.378;2023-04-25T09:03:16;14.50;99.90
48488;DHT22;34289;48.572;13.378;2023-04-25T09:05:42;14.00;99.90
48488;DHT22;34289;48.572;13.378;2023-04-25T09:08:07;13.70;99.90
48488;DHT22;34289;48.572;13.378;2023-04-25T09:10:34;12.70;99.90
48488;DHT22;34289;48.572;13.378;2023-04-25T09:15:32;11.80;99.90
48488;DHT22;34289;48.572;13.378;2023-04-25T09:17:58;11.50;99.90
48488;DHT22;34289;48.572;13.378;2023-04-25T09:20:25;11.40;99.90
48488;DHT22;34289;48.572;13.378;2023-04-25T09:23:02;11.20;99.90
48488;DHT22;34289;48.572;13.378;2023-04-25T09:25:34;11.00;99.90
48488;DHT22;34289;48.572;13.378;2023-04-25T09:28:03;10.80;99.90
48488;DHT22;34289;48.572;13.378;2023-04-25T09:30:31;10.50;99.90
48488;DHT22;34289;48.572;13.378;2023-04-25T09:33:03;10.20;99.90
48488;DHT22;34289;48.572;13.378;2023-04-25T09:35:29;10.10;99.90
48488;DHT22;34289;48.572;13.378;2023-04-25T09:37:55;10.20;99.90
48488;DHT22;34289;48.572;13.378;2023-04-25T09:40:21;10.50;99.90
48488;DHT22;34289;48.572;13.378;2023-04-25T09:42:46;11.00;99.90
48488;DHT22;34289;48.572;13.378;2023-04-25T09:45:13;11.70;99.90
48488;DHT22;34289;48.572;13.378;2023-04-25T09:47:41;12.20;99.90
48488;DHT22;34289;48.572;13.378;2023-04-25T09:50:16;12.10;99.90
48488;DHT22;34289;48.572;13.378;2023-04-25T09:52:42;12.10;99.90
48488;DHT22;34289;48.572;13.378;2023-04-25T09:55:08;12.30;99.90
48488;DHT22;34289;48.572;13.378;2023-04-25T09:57:35;12.60;99.90
48488;DHT22;34289;48.572;13.378;2023-04-25T10:00:05;13.00;99.90
48488;DHT22;34289;48.572;13.378;2023-04-25T10:02:35;13.40;99.90
48488;DHT22;34289;48.572;13.378;2023-04-25T10:05:05;13.90;99.90
48488;DHT22;34289;48.572;13.378;2023-04-25T10:07:31;13.50;99.90
48488;DHT22;34289;48.572;13.378;2023-04-25T10:10:00;13.40;99.90
48488;DHT22;34289;48.572;13.378;2023-04-25T10:12:28;13.10;99.90
48488;DHT22;34289;48.572;13.378;2023-04-25T10:14:54;13.00;99.90
48488;DHT22;34289;48.572;13.378;2023-04-25T10:17:20;12.50;99.90
48488;DHT22;34289;48.572;13.378;2023-04-25T10:19:47;12.50;99.90
48488;DHT22;34289;48.572;13.378;2023-04-25T10:22:14;12.60;99.90
48488;DHT22;34289;48.572;13.378;2023-04-25T10:24:42;12.70;99.90
48488;DHT22;34289;48.572;13.378;2023-04-25T10:27:08;12.60;99.90
48488;DHT22;34289;48.572;13.378;2023-04-25T10:29:35;12.40;99.90
48488;DHT22;34289;48.572;13.378;2023-04-25T10:32:00;12.40;99.90
48488;DHT22;34289;48.572;13.378;2023-04-25T10:34:40;12.30;99.90
48488;DHT22;34289;48.572;13.378;2023-04-25T10:37:11;12.00;99.90
48488;DHT22;34289;48.572;13.378;2023-04-25T10:39:39;11.80;99.90
48488;DHT22;34289;48.572;13.378;2023-04-25T10:42:05;12.00;99.90
48488;DHT22;34289;48.572;13.378;2023-04-25T10:44:33;12.00;99.90
48488;DHT22;34289;48.572;13.378;2023-04-25T10:47:01;12.40;99.90
48488;DHT22;34289;48.572;13.378;2023-04-25T10:49:44;12.50;99.90
48488;DHT22;34289;48.572;13.378;2023-04-25T10:52:30;12.50;99.90
48488;DHT22;34289;48.572;13.378;2023-04-25T10:54:58;12.00;99.90
48488;DHT22;34289;48.572;13.378;2023-04-25T10:59:58;11.10;99.90
48488;DHT22;34289;48.572;13.378;2023-04-25T11:02:26;10.90;99.90
48488;DHT22;34289;48.572;13.378;2023-04-25T11:04:53;10.70;99.90
48488;DHT22;34289;48.572;13.378;2023-04-25T11:07:49;10.70;99.90
48488;DHT22;34289;48.572;13.378;2023-04-25T11:10:15;10.90;99.90
48488;DHT22;34289;48.572;13.378;2023-04-25T11:12:41;11.00;99.90
48488;DHT22;34289;48.572;13.378;2023-04-25T11:15:07;11.10;99.90
48488;DHT22;34289;48.572;13.378;2023-04-25T11:17:33;11.20;99.90
48488;DHT22;34289;48.572;13.378;2023-04-25T11:20:00;11.70;99.90
48488;DHT22;34289;48.572;13.378;2023-04-25T11:22:27;12.20;99.90
48488;DHT22;34289;48.572;13.378;2023-04-25T11:24:53;13.10;99.90
48488;DHT22;34289;48.572;13.378;2023-04-25T11:27:19;13.80;99.90
48488;DHT22;34289;48.572;13.378;2023-04-25T11:29:46;14.00;99.90
48488;DHT22;34289;48.572;13.378;2023-04-25T11:32:15;14.40;99.90
48488;DHT22;34289;48.572;13.378;2023-04-25T11:34:43;14.80;99.90
48488;DHT22;34289;48.572;13.378;2023-04-25T11:37:09;14.90;99.90
48488;DHT22;34289;48.572;13.378;2023-04-25T11:39:37;15.20;99.90
48488;DHT22;34289;48.572;13.378;2023-04-25T11:42:04;15.40;99.90
48488;DHT22;34289;48.572;13.378;2023-04-25T11:44:30;15.60;99.90
48488;DHT22;34289;48.572;13.378;2023-04-25T11:46:55;16.00;99.90
48488;DHT22;34289;48.572;13.378;2023-04-25T11:49:21;16.20;99.90
48488;DHT22;34289;48.572;13.378;2023-04-25T11:51:48;15.90;99.90
48488;DHT22;34289;48.572;13.378;2023-04-25T11:54:14;15.10;99.90
48488;DHT22;34289;48.572;13.378;2023-04-25T11:56:44;14.50;99.90
48488;DHT22;34289;48.572;13.378;2023-04-25T11:59:11;13.80;99.90
48488;DHT22;34289;48.572;13.378;2023-04-25T12:01:38;13.10;99.90
48488;DHT22;34289;48.572;13.378;2023-04-25T12:04:21;12.20;99.90
48488;DHT22;34289;48.572;13.378;2023-04-25T12:06:50;11.60;99.90
48488;DHT22;34289;48.572;13.378;2023-04-25T12:09:18;11.00;99.90
48488;DHT22;34289;48.572;13.378;2023-04-25T12:11:55;10.70;99.90
48488;DHT22;34289;48.572;13.378;2023-04-25T12:14:25;10.20;99.90
48488;DHT22;34289;48.572;13.378;2023-04-25T12:16:52;9.60;99.90
48488;DHT22;34289;48.572;13.378;2023-04-25T12:19:19;9.50;99.90
48488;DHT22;34289;48.572;13.378;2023-04-25T12:21:46;9.50;99.90
48488;DHT22;34289;48.572;13.378;2023-04-25T12:24:13;9.30;99.90
48488;DHT22;34289;48.572;13.378;2023-04-25T12:27:05;9.20;99.90
48488;DHT22;34289;48.572;13.378;2023-04-25T12:29:34;9.00;99.90
48488;DHT22;34289;48.572;13.378;2023-04-25T12:32:00;9.20;99.90
48488;DHT22;34289;48.572;13.378;2023-04-25T12:34:27;9.30;99.90
48488;DHT22;34289;48.572;13.378;2023-04-25T12:36:53;9.30;99.90
48488;DHT22;34289;48.572;13.378;2023-04-25T12:39:23;9.60;99.90
48488;DHT22;34289;48.572;13.378;2023-04-25T12:41:51;10.00;99.90
48488;DHT22;34289;48.572;13.378;2023-04-25T12:44:20;10.50;99.90
48488;DHT22;34289;48.572;13.378;2023-04-25T12:46:46;10.70;99.90
48488;DHT22;34289;48.572;13.378;2023-04-25T12:49:12;11.00;99.90
48488;DHT22;34289;48.572;13.378;2023-04-25T12:51:38;11.30;99.90
48488;DHT22;34289;48.572;13.378;2023-04-25T12:54:05;11.20;99.90
48488;DHT22;34289;48.572;13.378;2023-04-25T12:56:31;11.30;99.90
48488;DHT22;34289;48.572;13.378;2023-04-25T12:58:57;11.70;99.90
48488;DHT22;34289;48.572;13.378;2023-04-25T13:01:24;11.60;99.90
48488;DHT22;34289;48.572;13.378;2023-04-25T13:03:50;12.00;99.90
48488;DHT22;34289;48.572;13.378;2023-04-25T13:06:16;12.20;99.90
48488;DHT22;34289;48.572;13.378;2023-04-25T13:08:42;12.10;99.90
48488;DHT22;34289;48.572;13.378;2023-04-25T13:11:08;12.00;99.90
48488;DHT22;34289;48.572;13.378;2023-04-25T13:13:34;11.90;99.90
48488;DHT22;34289;48.572;13.378;2023-04-25T13:16:03;11.90;99.90
48488;DHT22;34289;48.572;13.378;2023-04-25T13:18:30;11.90;99.90
48488;DHT22;34289;48.572;13.378;2023-04-25T13:20:56;11.90;99.90
48488;DHT22;34289;48.572;13.378;2023-04-25T13:23:23;12.10;99.90
48488;DHT22;34289;48.572;13.378;2023-04-25T13:25:48;12.00;99.90
48488;DHT22;34289;48.572;13.378;2023-04-25T13:28:14;12.00;99.90
48488;DHT22;34289;48.572;13.378;2023-04-25T13:30:40;12.10;99.90
48488;DHT22;34289;48.572;13.378;2023-04-25T13:33:06;12.60;99.90
48488;DHT22;34289;48.572;13.378;2023-04-25T13:35:33;13.00;99.90
48488;DHT22;34289;48.572;13.378;2023-04-25T13:37:59;13.00;99.90
48488;DHT22;34289;48.572;13.378;2023-04-25T13:40:25;13.00;99.90
48488;DHT22;34289;48.572;13.378;2023-04-25T13:42:52;13.10;99.90
48488;DHT22;34289;48.572;13.378;2023-04-25T13:45:17;13.10;99.90
48488;DHT22;34289;48.572;13.378;2023-04-25T13:47:43;12.70;99.90
48488;DHT22;34289;48.572;13.378;2023-04-25T13:50:09;12.20;99.90
48488;DHT22;34289;48.572;13.378;2023-04-25T13:52:35;12.10;99.90
48488;DHT22;34289;48.572;13.378;2023-04-25T13:55:00;12.00;99.90
48488;DHT22;34289;48.572;13.378;2023-04-25T13:57:29;12.10;99.90
48488;DHT22;34289;48.572;13.378;2023-04-25T13:59:55;12.00;99.90
48488;DHT22;34289;48.572;13.378;2023-04-25T14:02:21;11.90;99.90
48488;DHT22;34289;48.572;13.378;2023-04-25T14:04:47;11.90;99.90
48488;DHT22;34289;48.572;13.378;2023-04-25T14:07:13;12.00;99.90
48488;DHT22;34289;48.572;13.378;2023-04-25T14:09:41;11.90;99.90
48488;DHT22;34289;48.572;13.378;2023-04-25T14:12:07;11.90;99.90
48488;DHT22;34289;48.572;13.378;2023-04-25T14:14:32;11.80;99.90
48488;DHT22;34289;48.572;13.378;2023-04-25T14:16:58;11.70;99.90
48488;DHT22;34289;48.572;13.378;2023-04-25T14:19:24;12.10;99.90
48488;DHT22;34289;48.572;13.378;2023-04-25T14:21:49;11.70;99.90
48488;DHT22;34289;48.572;13.378;2023-04-25T14:24:15;11.50;99.90
48488;DHT22;34289;48.572;13.378;2023-04-25T14:26:41;11.20;99.90
48488;DHT22;34289;48.572;13.378;2023-04-25T14:29:09;11.10;99.90
48488;DHT22;34289;48.572;13.378;2023-04-25T14:31:37;11.00;99.90
48488;DHT22;34289;48.572;13.378;2023-04-25T14:34:04;11.30;99.90
48488;DHT22;34289;48.572;13.378;2023-04-25T14:36:31;10.90;99.90
48488;DHT22;34289;48.572;13.378;2023-04-25T14:38:58;10.80;99.90
48488;DHT22;34289;48.572;13.378;2023-04-25T14:41:24;11.10;99.90
48488;DHT22;34289;48.572;13.378;2023-04-25T14:43:50;11.20;99.90
48488;DHT22;34289;48.572;13.378;2023-04-25T14:46:16;11.10;99.90
48488;DHT22;34289;48.572;13.378;2023-04-25T14:48:42;11.20;99.90
48488;DHT22;34289;48.572;13.378;2023-04-25T14:51:07;11.20;99.90
48488;DHT22;34289;48.572;13.378;2023-04-25T14:53:33;11.30;99.90
48488;DHT22;34289;48.572;13.378;2023-04-25T14:55:59;11.30;99.90
48488;DHT22;34289;48.572;13.378;2023-04-25T14:58:24;11.30;99.90
48488;DHT22;34289;48.572;13.378;2023-04-25T15:00:50;11.30;99.90
48488;DHT22;34289;48.572;13.378;2023-04-25T15:03:17;11.10;99.90
48488;DHT22;34289;48.572;13.378;2023-04-25T15:05:43;10.90;99.90
48488;DHT22;34289;48.572;13.378;2023-04-25T15:08:08;10.70;99.90
48488;DHT22;34289;48.572;13.378;2023-04-25T15:10:35;10.70;99.90
48488;DHT22;34289;48.572;13.378;2023-04-25T15:13:02;10.60;99.90
48488;DHT22;34289;48.572;13.378;2023-04-25T15:15:28;10.60;99.90
48488;DHT22;34289;48.572;13.378;2023-04-25T15:17:55;10.60;99.90
48488;DHT22;34289;48.572;13.378;2023-04-25T15:20:22;11.00;99.90
48488;DHT22;34289;48.572;13.378;2023-04-25T15:22:48;10.70;99.90
48488;DHT22;34289;48.572;13.378;2023-04-25T15:25:15;10.70;99.90